Round Rock, TX (78665)

4:14 AM CST on December 18, 2014 (GMT -0600)
Round Rock West | Change Station
CLOSE
Current Station
Personal Weather Station
Location: Round Rock, TX
Elevation: 781 ft
Nearby Weather Stations

Elev 781 ft 30.50 °N, 97.69 °W | Updated 3 minutes ago

Overcast
Overcast
47.7 °F
Feels Like 48 °F
N
0.0
Wind Variable Wind from NNW
Gusts 0.0 mph

Today
High -- | Low -- °F
--% Chance of Precip.
Yesterday
High -- | Low -- °F
Precip. -- in
7:22 AM 5:32 PM
Waning Crescent, 15% visible
Pressure 30.10 in
Visibility 1.0 miles
Clouds Overcast 300 ft
Windchill 48 °F
Dew Point 47 °F
Humidity 97%
Rainfall 0.00 in
Snow Depth Not available.
UV 0 out of 12
Pollen 7.00 out of 12
Air Quality Not available.
Flu Activity Not available.
METAR KEDC 180955Z AUTO 02007KT 1SM BR OVC003 08/08 A3010 RMK AO2

More Conditions Fewer Conditions

Pressure 30.10 in
Visibility 1.0 miles
Clouds Overcast 300 ft
Windchill 48 °F
Dew Point 47 °F
Humidity 97%
Rainfall 0.00 in
Snow Depth Not available.
UV 0 out of 12
Pollen 7.00 out of 12
Air Quality Not available.
Flu Activity Not available.
METAR KEDC 180955Z AUTO 02007KT 1SM BR OVC003 08/08 A3010 RMK AO2

More Conditions Fewer Conditions

Nowcast | as of 3:02 am CST on December 18, 2014

Through 5 am...isolated showers and patchy light drizzle will move northeast across south central Texas. Spotty rainfall amounts of up to one tenth inch are possible. Areas of fog will continue to develop with visibilities generally 1 to 3 miles. Some locations will see lower visibilities of 1/4 mile or less. Motorists should exercise caution and slow down in areas of fog as visibilities may drop rapidly. Remember to use the low beam headlights in areas of fog.

×

10-Day Weather Forecast

Almanac

Astronomy

Dec. 18, 2014 Rise Set
Actual Time
Civil Twilight
Nautical Twilight
Astronomical Twilight
Moon
Length of Visible Light
Length of Day
Tomorrow will be .
, % of the Moon is Illuminated

Today's Extremes

State Highs State Lows

Community

WunderPhotos

Upload Photos

1,778,907 photos uploaded!

WunderBlogs® & News

Nearby

Air Quality

  Air Quality AQ Index Pollutant
Not available.

Snow Depth

Station Depth Elevation

Earthquake Activity

City Distance Mag. Time & Date
Minimum magnitude displayed is 2.5.

Coastal Water Temperatures

Place Temperature

Nearby Weather Stations